createdAt,value
2019-02-25T00:00:55.300Z,20.57
2019-02-25T00:03:26.465Z,23.30
2019-02-25T00:05:56.949Z,22.58
2019-02-25T00:08:26.481Z,21.07
2019-02-25T00:10:55.930Z,21.75
2019-02-25T00:13:25.510Z,23.12
2019-02-25T00:15:54.936Z,22.95
2019-02-25T00:18:24.477Z,23.35
2019-02-25T00:20:54.032Z,22.15
2019-02-25T00:23:24.449Z,21.97
2019-02-25T00:25:53.898Z,22.77
2019-02-25T00:28:23.306Z,22.27
2019-02-25T00:30:53.111Z,22.42
2019-02-25T00:33:22.579Z,23.20
2019-02-25T00:35:52.111Z,21.93
2019-02-25T00:38:21.588Z,20.05
2019-02-25T00:40:51.326Z,22.58
2019-02-25T00:43:20.858Z,20.72
2019-02-25T00:45:50.269Z,20.32
2019-02-25T00:48:19.743Z,21.20
2019-02-25T00:50:49.235Z,21.00
2019-02-25T00:53:18.695Z,22.37
2019-02-25T00:55:48.185Z,19.37
2019-02-25T00:58:17.643Z,20.48
2019-02-25T01:00:47.102Z,22.80
2019-02-25T01:03:16.564Z,21.03
2019-02-25T01:05:45.999Z,20.62
2019-02-25T01:08:15.455Z,20.33
2019-02-25T01:10:44.973Z,20.65
2019-02-25T01:13:14.537Z,21.65
2019-02-25T01:15:43.945Z,21.48
2019-02-25T01:18:13.407Z,19.90
2019-02-25T01:20:42.855Z,19.48
2019-02-25T01:23:12.324Z,19.37
2019-02-25T01:25:41.787Z,18.67
2019-02-25T01:28:11.267Z,20.00
2019-02-25T01:30:40.659Z,22.10
2019-02-25T01:33:10.206Z,22.37
2019-02-25T01:35:39.732Z,19.85
2019-02-25T01:38:10.080Z,20.80
2019-02-25T01:40:39.499Z,18.42
2019-02-25T01:43:09.076Z,18.24
2019-02-25T01:45:38.477Z,19.80
2019-02-25T01:48:08.060Z,20.30
2019-02-25T01:50:37.545Z,18.48
2019-02-25T01:53:07.081Z,18.20
2019-02-25T01:55:36.496Z,19.77
2019-02-25T01:58:06.025Z,18.62
2019-02-25T02:00:35.608Z,18.05
2019-02-25T02:03:05.009Z,18.00
2019-02-25T02:05:34.503Z,16.90
2019-02-25T02:08:04.427Z,20.15
2019-02-25T02:10:33.896Z,19.55
2019-02-25T02:13:03.384Z,19.15
2019-02-25T02:15:32.850Z,23.30
2019-02-25T02:18:02.342Z,19.82
2019-02-25T02:20:31.801Z,19.55
2019-02-25T02:23:01.212Z,20.50
2019-02-25T02:25:31.717Z,19.37
2019-02-25T02:28:01.164Z,19.90
2019-02-25T02:30:30.828Z,20.85
2019-02-25T02:33:00.278Z,19.33
2019-02-25T02:35:29.701Z,20.20
2019-02-25T02:37:59.155Z,20.77
2019-02-25T02:40:28.563Z,21.15
2019-02-25T02:43:01.637Z,21.50
2019-02-25T02:45:40.252Z,22.10
2019-02-25T02:48:12.952Z,18.00
2019-02-25T02:50:42.427Z,17.73
2019-02-25T02:53:11.841Z,18.45
2019-02-25T02:55:41.319Z,18.10
2019-02-25T02:58:10.888Z,21.02
2019-02-25T03:00:40.440Z,21.00
2019-02-25T03:03:09.925Z,18.55
2019-02-25T03:05:39.436Z,20.03
2019-02-25T03:08:08.871Z,19.38
2019-02-25T03:10:38.319Z,19.62
2019-02-25T03:13:08.617Z,23.32
2019-02-25T03:15:38.158Z,18.82
2019-02-25T03:18:07.586Z,19.90
2019-02-25T03:20:37.137Z,20.12
2019-02-25T03:23:07.559Z,23.52
2019-02-25T03:25:37.037Z,21.12
2019-02-25T03:28:06.615Z,20.05
2019-02-25T03:30:36.089Z,18.62
2019-02-25T03:33:05.688Z,18.73
2019-02-25T03:35:35.206Z,18.15
2019-02-25T03:38:04.867Z,18.60
2019-02-25T03:40:34.392Z,22.25
2019-02-25T03:43:04.506Z,20.95
2019-02-25T03:45:33.964Z,17.80
2019-02-25T03:48:04.526Z,18.85
2019-02-25T03:50:33.973Z,21.10
2019-02-25T03:53:04.431Z,19.12
2019-02-25T03:55:34.236Z,19.07
2019-02-25T03:58:04.495Z,19.52
2019-02-25T04:00:33.949Z,20.27
2019-02-25T04:03:04.593Z,21.07
2019-02-25T04:05:34.216Z,17.42
2019-02-25T04:08:04.540Z,18.60
2019-02-25T04:10:33.989Z,19.67
2019-02-25T04:13:04.306Z,19.42
2019-02-25T04:15:38.063Z,19.15
2019-02-25T04:18:07.492Z,16.93
2019-02-25T04:20:38.437Z,15.55
2019-02-25T04:23:07.929Z,18.57
2019-02-25T04:25:37.405Z,18.47
2019-02-25T04:28:08.244Z,19.06
2019-02-25T04:30:37.695Z,18.35
2019-02-25T04:33:07.190Z,17.90
2019-02-25T04:35:36.691Z,16.40
2019-02-25T04:38:07.075Z,16.77
2019-02-25T04:40:36.643Z,18.07
2019-02-25T04:43:06.057Z,17.80
2019-02-25T04:45:35.520Z,20.57
2019-02-25T04:48:04.999Z,21.12
2019-02-25T04:50:34.454Z,19.15
2019-02-25T04:53:04.385Z,19.73
2019-02-25T04:55:33.840Z,18.77
2019-02-25T04:58:03.314Z,19.15
2019-02-25T05:00:32.731Z,18.27
2019-02-25T05:03:02.257Z,19.20
2019-02-25T05:05:31.699Z,16.95
2019-02-25T05:08:01.159Z,19.23
2019-02-25T05:10:30.614Z,19.65
2019-02-25T05:13:06.893Z,20.05
2019-02-25T05:15:37.319Z,19.82
2019-02-25T05:18:06.730Z,19.60
2019-02-25T05:20:36.304Z,18.73
2019-02-25T05:23:05.775Z,21.45
2019-02-25T05:25:35.183Z,18.70
2019-02-25T05:28:04.592Z,16.70
2019-02-25T05:30:34.040Z,18.02
2019-02-25T05:33:04.396Z,18.94
2019-02-25T05:35:33.876Z,17.15
2019-02-25T05:38:03.354Z,21.17
2019-02-25T05:40:32.886Z,16.23
2019-02-25T05:43:02.691Z,16.42
2019-02-25T05:45:32.138Z,15.65
2019-02-25T05:48:01.879Z,18.30
2019-02-25T05:50:31.279Z,20.20
2019-02-25T05:53:00.752Z,20.00
2019-02-25T05:55:30.208Z,18.07
2019-02-25T05:57:59.640Z,17.10
2019-02-25T06:00:30.729Z,15.68
2019-02-25T06:03:00.222Z,17.80
2019-02-25T06:05:29.963Z,14.80
2019-02-25T06:07:59.727Z,16.33
2019-02-25T06:10:29.183Z,20.40
2019-02-25T06:12:58.595Z,22.60
2019-02-25T06:15:28.001Z,24.37
2019-02-25T06:17:57.735Z,25.05
2019-02-25T06:20:27.138Z,23.87
2019-02-25T06:22:56.855Z,26.20
2019-02-25T06:25:26.276Z,26.70
2019-02-25T06:27:55.758Z,26.45
2019-02-25T06:30:25.171Z,35.88
2019-02-25T06:32:54.686Z,33.80
2019-02-25T06:35:24.100Z,31.23
2019-02-25T06:37:53.536Z,34.35
2019-02-25T06:40:22.990Z,27.40
2019-02-25T06:42:52.396Z,44.45
2019-02-25T06:45:24.746Z,43.25
2019-02-25T06:47:54.217Z,40.10
2019-02-25T06:50:23.674Z,34.90
2019-02-25T06:52:53.181Z,30.23
2019-02-25T06:55:22.863Z,30.25
2019-02-25T06:57:52.325Z,29.40
2019-02-25T07:00:22.978Z,25.27
2019-02-25T07:02:52.435Z,32.90
2019-02-25T07:05:23.499Z,21.85
2019-02-25T07:08:00.738Z,25.82
2019-02-25T07:10:43.845Z,28.85
2019-02-25T07:13:23.908Z,27.27
2019-02-25T07:16:01.330Z,26.23
2019-02-25T07:18:35.147Z,27.42
2019-02-25T07:21:12.044Z,26.68
2019-02-25T07:23:43.188Z,24.72
2019-02-25T07:26:30.507Z,25.77
2019-02-25T07:29:03.474Z,22.13
2019-02-25T07:31:36.780Z,36.33
2019-02-25T07:34:07.827Z,27.27
2019-02-25T07:36:39.739Z,25.12
2019-02-25T07:39:20.041Z,32.30
2019-02-25T07:41:51.143Z,22.85
2019-02-25T07:44:27.871Z,23.37
2019-02-25T07:47:04.863Z,33.23
2019-02-25T07:49:38.618Z,24.05
2019-02-25T07:52:21.740Z,24.85
2019-02-25T07:55:01.995Z,24.82
2019-02-25T07:57:44.970Z,24.75
2019-02-25T08:00:16.120Z,22.75
2019-02-25T08:02:59.140Z,20.77
2019-02-25T08:05:30.192Z,20.43
2019-02-25T08:08:01.290Z,18.50
2019-02-25T08:10:35.300Z,20.75
2019-02-25T08:13:09.307Z,23.18
2019-02-25T08:15:43.254Z,21.57
2019-02-25T08:18:14.360Z,23.02
2019-02-25T08:20:51.146Z,21.97
2019-02-25T08:23:27.903Z,22.35
2019-02-25T08:25:59.034Z,23.85
2019-02-25T08:28:35.858Z,26.73
2019-02-25T08:31:06.944Z,21.45
2019-02-25T08:33:55.494Z,23.67
2019-02-25T08:37:02.148Z,22.42
2019-02-25T08:39:43.768Z,26.02
2019-02-25T08:42:16.330Z,21.33
2019-02-25T08:44:50.160Z,23.42
2019-02-25T08:47:21.247Z,20.60
2019-02-25T08:49:53.278Z,18.80
2019-02-25T08:52:22.830Z,22.17
2019-02-25T08:54:52.399Z,19.05
2019-02-25T08:57:21.945Z,23.57
2019-02-25T08:59:51.524Z,21.82
2019-02-25T09:02:20.978Z,20.57
2019-02-25T09:04:50.458Z,24.77
2019-02-25T09:07:19.900Z,21.82
2019-02-25T09:09:49.307Z,21.20
2019-02-25T09:12:18.768Z,19.95
2019-02-25T09:14:48.243Z,22.70
2019-02-25T09:17:18.367Z,18.47
2019-02-25T09:19:47.859Z,23.73
2019-02-25T09:22:17.351Z,19.90
2019-02-25T09:24:46.883Z,49.90
2019-02-25T09:27:16.297Z,22.47
2019-02-25T09:29:45.747Z,25.10
2019-02-25T09:32:15.151Z,20.45
2019-02-25T09:34:44.612Z,22.22
2019-02-25T09:37:15.111Z,23.00
2019-02-25T09:39:44.540Z,21.70
2019-02-25T09:42:15.651Z,17.97
2019-02-25T09:44:45.090Z,20.65
2019-02-25T09:47:14.509Z,17.73
2019-02-25T09:49:44.017Z,19.40
2019-02-25T09:52:13.436Z,18.93
2019-02-25T09:54:42.915Z,20.15
2019-02-25T09:57:12.355Z,18.90
2019-02-25T09:59:41.868Z,18.62
2019-02-25T10:02:11.281Z,20.37
2019-02-25T10:04:40.753Z,19.90
2019-02-25T10:07:10.221Z,19.65
2019-02-25T10:09:39.670Z,21.40
2019-02-25T10:12:09.162Z,18.82
2019-02-25T10:14:38.696Z,23.40
2019-02-25T10:17:08.110Z,19.90
2019-02-25T10:19:37.576Z,20.37
2019-02-25T10:22:07.193Z,21.35
2019-02-25T10:24:36.625Z,17.90
2019-02-25T10:27:06.088Z,20.40
2019-02-25T10:29:35.555Z,21.20
2019-02-25T10:32:06.567Z,20.27
2019-02-25T10:34:36.274Z,22.58
2019-02-25T10:37:05.718Z,23.38
2019-02-25T10:39:35.147Z,20.88
2019-02-25T10:42:04.692Z,24.10
2019-02-25T10:44:36.055Z,22.82
2019-02-25T10:47:05.295Z,22.98
2019-02-25T10:49:34.776Z,26.93
2019-02-25T10:52:04.383Z,26.80
2019-02-25T10:54:34.886Z,20.82
2019-02-25T10:57:05.471Z,25.75
2019-02-25T10:59:36.758Z,20.72
2019-02-25T11:02:06.317Z,23.83
2019-02-25T11:04:35.748Z,24.02
2019-02-25T11:07:07.277Z,22.15
2019-02-25T11:09:39.867Z,26.68
2019-02-25T11:12:09.250Z,23.94
2019-02-25T11:14:40.960Z,23.20
2019-02-25T11:17:09.832Z,24.65
2019-02-25T11:19:39.745Z,23.67
2019-02-25T11:22:10.398Z,22.05
2019-02-25T11:24:40.432Z,23.50
2019-02-25T11:27:09.912Z,24.35
2019-02-25T11:29:40.490Z,18.90
2019-02-25T11:32:10.901Z,21.95
2019-02-25T11:34:40.420Z,21.50
2019-02-25T11:37:09.957Z,18.40
2019-02-25T11:39:39.432Z,19.55
2019-02-25T11:42:10.805Z,19.14
2019-02-25T11:44:40.221Z,21.27
2019-02-25T11:47:09.891Z,18.48
2019-02-25T11:49:39.366Z,21.33
2019-02-25T11:52:08.858Z,18.62
2019-02-25T11:54:38.314Z,21.80
2019-02-25T11:57:07.732Z,21.52
2019-02-25T11:59:37.211Z,18.90
2019-02-25T12:02:06.690Z,20.77
2019-02-25T12:04:36.153Z,21.10
2019-02-25T12:07:05.675Z,19.00
2019-02-25T12:09:35.281Z,18.05
2019-02-25T12:12:04.944Z,17.23
2019-02-25T12:14:35.364Z,22.00
2019-02-25T12:17:04.968Z,17.85
2019-02-25T12:19:34.416Z,18.20
2019-02-25T12:22:03.880Z,17.65
2019-02-25T12:24:33.341Z,20.10
2019-02-25T12:27:03.038Z,19.42
2019-02-25T12:29:32.576Z,19.45
2019-02-25T12:32:02.079Z,17.45
2019-02-25T12:34:32.500Z,20.57
2019-02-25T12:37:02.004Z,20.62
2019-02-25T12:39:31.566Z,21.82
2019-02-25T12:42:01.011Z,21.95
2019-02-25T12:44:30.548Z,19.37
2019-02-25T12:47:00.001Z,19.32
2019-02-25T12:49:29.453Z,18.63
2019-02-25T12:51:58.985Z,18.77
2019-02-25T12:54:28.454Z,17.27
2019-02-25T12:56:57.926Z,18.67
2019-02-25T12:59:27.344Z,19.60
2019-02-25T13:01:56.764Z,18.70
2019-02-25T13:04:26.231Z,16.30
2019-02-25T13:06:55.646Z,16.82
2019-02-25T13:09:25.178Z,19.12
2019-02-25T13:11:54.655Z,18.57
2019-02-25T13:14:24.124Z,18.37
2019-02-25T13:16:53.560Z,18.02
2019-02-25T13:19:23.043Z,19.57
2019-02-25T13:21:52.497Z,22.27
2019-02-25T13:24:21.939Z,19.00
2019-02-25T13:26:51.405Z,22.85
2019-02-25T13:29:20.828Z,19.00
2019-02-25T13:31:50.259Z,20.45
2019-02-25T13:34:19.855Z,20.90
2019-02-25T13:36:50.868Z,18.05
2019-02-25T13:39:20.312Z,17.63
2019-02-25T13:41:49.728Z,18.65
2019-02-25T13:44:19.193Z,17.50
2019-02-25T13:46:48.676Z,20.25
2019-02-25T13:49:18.097Z,18.77
2019-02-25T13:51:47.574Z,18.10
2019-02-25T13:54:17.045Z,21.83
2019-02-25T13:56:46.489Z,21.62
2019-02-25T13:59:15.909Z,20.65
2019-02-25T14:01:45.386Z,18.45
2019-02-25T14:04:14.848Z,22.15
2019-02-25T14:06:44.314Z,21.23
2019-02-25T14:09:14.435Z,21.13
2019-02-25T14:11:45.477Z,20.00
2019-02-25T14:14:14.981Z,19.40
2019-02-25T14:16:44.439Z,15.83
2019-02-25T14:19:13.914Z,18.55
2019-02-25T14:21:43.391Z,18.57
2019-02-25T14:24:12.912Z,15.85
2019-02-25T14:26:42.483Z,18.87
2019-02-25T14:29:11.909Z,21.70
2019-02-25T14:31:41.424Z,20.00
2019-02-25T14:34:10.881Z,19.80
2019-02-25T14:36:40.355Z,19.25
2019-02-25T14:39:18.158Z,15.94
2019-02-25T14:41:47.754Z,15.60
2019-02-25T14:44:17.753Z,15.58
2019-02-25T14:46:50.154Z,15.55
2019-02-25T14:49:19.659Z,17.75
2019-02-25T14:51:49.234Z,18.67
2019-02-25T14:54:18.845Z,15.72
2019-02-25T14:56:50.216Z,16.57
2019-02-25T14:59:20.299Z,17.13
2019-02-25T15:01:50.588Z,18.32
2019-02-25T15:04:20.101Z,18.57
2019-02-25T15:06:51.269Z,15.90
2019-02-25T15:09:20.752Z,17.07
2019-02-25T15:11:51.267Z,18.00
2019-02-25T15:14:21.492Z,16.40
2019-02-25T15:16:50.999Z,16.40
2019-02-25T15:19:20.679Z,16.53
2019-02-25T15:21:52.032Z,16.67
2019-02-25T15:24:21.387Z,17.63
2019-02-25T15:26:50.958Z,17.00
2019-02-25T15:29:20.473Z,18.90
2019-02-25T15:31:50.498Z,18.10
2019-02-25T15:34:21.119Z,18.10
2019-02-25T15:36:50.587Z,25.30
2019-02-25T15:39:20.255Z,21.00
2019-02-25T15:41:50.906Z,21.55
2019-02-25T15:44:21.014Z,18.10
2019-02-25T15:46:51.768Z,19.77
2019-02-25T15:49:22.287Z,18.67
2019-02-25T15:51:55.095Z,22.25
2019-02-25T15:54:24.646Z,20.55
2019-02-25T15:56:54.133Z,24.67
2019-02-25T15:59:31.932Z,20.92
2019-02-25T16:01:55.435Z,24.35
2019-02-25T16:04:25.545Z,26.62
2019-02-25T16:06:57.607Z,22.70
2019-02-25T16:09:29.351Z,23.80
2019-02-25T16:11:59.383Z,20.80
2019-02-25T16:14:30.055Z,21.52
2019-02-25T16:17:01.025Z,23.85
2019-02-25T16:19:39.945Z,23.80
2019-02-25T16:22:02.744Z,23.52
2019-02-25T16:24:33.046Z,22.60
2019-02-25T16:27:04.501Z,21.27
2019-02-25T16:29:34.274Z,26.00
2019-02-25T16:32:03.779Z,23.45
2019-02-25T16:34:34.053Z,22.52
2019-02-25T16:37:05.067Z,22.88
2019-02-25T16:39:34.524Z,26.60
2019-02-25T16:42:05.127Z,26.22
2019-02-25T16:44:34.679Z,28.70
2019-02-25T16:47:04.720Z,24.95
2019-02-25T16:49:36.019Z,23.70
2019-02-25T16:52:05.995Z,27.15
2019-02-25T16:54:35.676Z,22.42
2019-02-25T16:57:07.182Z,23.42
2019-02-25T16:59:36.490Z,25.30
2019-02-25T17:02:07.131Z,28.40
2019-02-25T17:04:37.434Z,27.80
2019-02-25T17:07:07.056Z,25.72
2019-02-25T17:09:38.679Z,26.85
2019-02-25T17:12:08.890Z,26.85
2019-02-25T17:14:40.501Z,28.73
2019-02-25T17:17:09.780Z,28.60
2019-02-25T17:19:39.383Z,27.27
2019-02-25T17:22:09.995Z,31.57
2019-02-25T17:24:39.890Z,30.27
2019-02-25T17:27:11.465Z,25.03
2019-02-25T17:29:41.190Z,28.30
2019-02-25T17:32:11.415Z,29.60
2019-02-25T17:34:41.485Z,27.75
2019-02-25T17:37:13.029Z,28.60
2019-02-25T17:39:43.606Z,26.05
2019-02-25T17:42:13.784Z,24.80
2019-02-25T17:44:43.479Z,27.80
2019-02-25T17:47:17.309Z,28.47
2019-02-25T17:49:44.405Z,26.68
2019-02-25T17:52:15.849Z,27.82
2019-02-25T17:54:45.479Z,24.87
2019-02-25T17:57:15.388Z,25.80
2019-02-25T17:59:46.364Z,28.95
2019-02-25T18:02:16.069Z,32.03
2019-02-25T18:04:47.047Z,27.40
2019-02-25T18:07:17.356Z,25.55
2019-02-25T18:09:47.241Z,30.40
2019-02-25T18:12:18.888Z,29.35
2019-02-25T18:14:48.112Z,24.85
2019-02-25T18:17:19.328Z,27.87
2019-02-25T18:19:50.170Z,25.85
2019-02-25T18:22:20.209Z,24.77
2019-02-25T18:24:56.367Z,26.10
2019-02-25T18:27:25.853Z,25.90
2019-02-25T18:29:57.033Z,24.45
2019-02-25T18:32:27.866Z,20.57
2019-02-25T18:34:58.842Z,24.98
2019-02-25T18:37:30.870Z,27.45
2019-02-25T18:40:00.425Z,21.35
2019-02-25T18:42:31.653Z,24.37
2019-02-25T18:45:01.369Z,28.95
2019-02-25T18:47:32.858Z,23.00
2019-02-25T18:50:02.442Z,26.15
2019-02-25T18:52:34.651Z,44.13
2019-02-25T18:55:08.999Z,23.55
2019-02-25T18:57:39.455Z,28.90
2019-02-25T19:00:24.225Z,25.55
2019-02-25T19:02:56.205Z,24.85
2019-02-25T19:05:28.800Z,25.90
2019-02-25T19:07:58.240Z,26.97
2019-02-25T19:10:28.434Z,23.22
2019-02-25T19:12:59.132Z,27.52
2019-02-25T19:15:29.679Z,25.27
2019-02-25T19:17:59.286Z,24.27
2019-02-25T19:20:28.909Z,27.58
2019-02-25T19:23:02.581Z,28.90
2019-02-25T19:25:29.739Z,27.40
2019-02-25T19:27:59.423Z,27.87
2019-02-25T19:30:29.797Z,27.17
2019-02-25T19:33:10.609Z,34.88
2019-02-25T19:35:32.964Z,36.05
2019-02-25T19:38:05.823Z,31.40
2019-02-25T19:40:40.269Z,37.28
2019-02-25T19:43:08.972Z,36.90
2019-02-25T19:45:40.584Z,35.08
2019-02-25T19:48:10.406Z,36.80
2019-02-25T19:50:50.614Z,35.55
2019-02-25T19:53:12.491Z,36.33
2019-02-25T19:55:43.937Z,37.33
2019-02-25T19:58:13.752Z,33.92
2019-02-25T20:00:44.439Z,32.60
2019-02-25T20:03:14.381Z,35.95
2019-02-25T20:05:46.005Z,35.23
2019-02-25T20:08:15.374Z,33.03
2019-02-25T20:10:44.951Z,35.13
2019-02-25T20:13:14.431Z,37.28
2019-02-25T20:15:44.917Z,35.65
2019-02-25T20:18:16.180Z,33.90
2019-02-25T20:20:46.564Z,35.48
2019-02-25T20:23:16.045Z,35.85
2019-02-25T20:25:48.499Z,32.15
2019-02-25T20:28:18.636Z,30.45
2019-02-25T20:30:49.365Z,32.10
2019-02-25T20:33:18.904Z,34.77
2019-02-25T20:35:51.267Z,33.65
2019-02-25T20:38:22.507Z,30.72
2019-02-25T20:40:51.211Z,31.00
2019-02-25T20:43:23.519Z,29.35
2019-02-25T20:45:54.655Z,32.42
2019-02-25T20:48:24.125Z,33.70
2019-02-25T20:50:53.671Z,34.15
2019-02-25T20:53:24.634Z,32.70
2019-02-25T20:55:55.057Z,37.30
2019-02-25T20:58:25.418Z,33.33
2019-02-25T21:00:54.884Z,33.78
2019-02-25T21:03:25.940Z,33.38
2019-02-25T21:05:56.768Z,41.68
2019-02-25T21:08:26.652Z,34.27
2019-02-25T21:10:56.262Z,36.40
2019-02-25T21:13:28.452Z,39.40
2019-02-25T21:15:58.305Z,34.90
2019-02-25T21:18:28.898Z,36.13
2019-02-25T21:20:59.170Z,35.10
2019-02-25T21:23:28.659Z,35.55
2019-02-25T21:26:00.228Z,33.38
2019-02-25T21:28:31.366Z,35.58
2019-02-25T21:31:00.411Z,34.98
2019-02-25T21:33:30.405Z,34.18
2019-02-25T21:36:01.119Z,37.88
2019-02-25T21:38:30.601Z,31.82
2019-02-25T21:41:00.173Z,32.90
2019-02-25T21:43:29.674Z,34.95
2019-02-25T21:46:01.456Z,35.25
2019-02-25T21:48:32.310Z,34.10
2019-02-25T21:51:02.928Z,35.95
2019-02-25T21:53:32.691Z,38.23
2019-02-25T21:56:04.737Z,31.80
2019-02-25T21:58:33.277Z,31.05
2019-02-25T22:01:02.860Z,32.53
2019-02-25T22:03:36.942Z,34.87
2019-02-25T22:06:04.908Z,34.95
2019-02-25T22:08:36.064Z,34.35
2019-02-25T22:11:12.383Z,33.35
2019-02-25T22:13:36.959Z,39.05
2019-02-25T22:16:08.033Z,38.95
2019-02-25T22:18:37.504Z,35.90
2019-02-25T22:21:09.197Z,32.55
2019-02-25T22:23:38.129Z,34.05
2019-02-25T22:26:07.555Z,37.78
2019-02-25T22:28:38.878Z,38.70
2019-02-25T22:31:10.633Z,36.40
2019-02-25T22:33:39.291Z,37.10
2019-02-25T22:36:08.752Z,32.98
2019-02-25T22:38:38.272Z,35.57
2019-02-25T22:41:07.735Z,34.08
2019-02-25T22:43:39.049Z,32.60
2019-02-25T22:46:11.128Z,33.73
2019-02-25T22:48:42.021Z,34.63
2019-02-25T22:51:10.695Z,36.47
2019-02-25T22:53:40.197Z,35.95
2019-02-25T22:56:13.397Z,38.02
2019-02-25T22:58:42.886Z,38.28
2019-02-25T23:01:17.052Z,35.03
2019-02-25T23:03:45.587Z,35.88
2019-02-25T23:06:15.863Z,33.90
2019-02-25T23:08:48.317Z,32.50
2019-02-25T23:11:19.818Z,36.20
2019-02-25T23:13:50.304Z,34.55
2019-02-25T23:16:22.738Z,36.60
2019-02-25T23:18:51.590Z,35.17
2019-02-25T23:21:24.209Z,35.50
2019-02-25T23:23:55.565Z,32.08
2019-02-25T23:26:23.515Z,34.03
2019-02-25T23:28:55.036Z,35.80
2019-02-25T23:31:24.072Z,37.25
2019-02-25T23:33:53.767Z,34.25
2019-02-25T23:36:24.600Z,33.85
2019-02-25T23:38:54.968Z,33.23
2019-02-25T23:41:25.524Z,31.65
2019-02-25T23:43:54.933Z,32.17
2019-02-25T23:46:27.289Z,34.13
2019-02-25T23:48:55.502Z,32.03
2019-02-25T23:51:24.979Z,36.90
2019-02-25T23:53:55.900Z,31.85
2019-02-25T23:56:27.412Z,33.73
2019-02-25T23:58:56.767Z,31.10
